Terminal Aerodrome Forecast
Issued by NWS

Home | Current Version | Previous Version | Text Only | Print | Product List | Glossary On
Versions: 1 2 3 4 5 6 7 8 9 10 11 12 13
300
FTUS45 KABQ 231145
TAFROW
TAF
KROW 231145Z 2312/2412 23005KT P6SM SKC
     FM231500 20008KT P6SM SKC
     FM232000 23020G30KT P6SM SKC
     FM240100 21012G20KT P6SM SKC
     FM240800 22018G28KT P6SM SKC=

USA.gov is the U.S. government's official web portal to all federal, state and local government web resources and services.